createdAt,value
2018-09-05T04:00:28.821Z,14.00
2018-09-05T04:02:57.898Z,18.00
2018-09-05T04:06:00.818Z,13.20
2018-09-05T04:08:28.926Z,13.97
2018-09-05T04:10:57.278Z,14.03
2018-09-05T04:13:25.722Z,14.37
2018-09-05T04:15:53.847Z,13.93
2018-09-05T04:18:21.974Z,16.40
2018-09-05T04:20:50.089Z,13.47
2018-09-05T04:23:18.363Z,13.20
2018-09-05T04:25:46.824Z,13.10
2018-09-05T04:28:15.340Z,13.33
2018-09-05T04:30:43.507Z,13.00
2018-09-05T04:33:11.602Z,14.00
2018-09-05T04:35:39.717Z,13.73
2018-09-05T04:38:07.836Z,13.07
2018-09-05T04:40:36.343Z,14.80
2018-09-05T04:43:04.548Z,15.57
2018-09-05T04:45:33.687Z,14.33
2018-09-05T04:48:02.135Z,15.47
2018-09-05T04:50:30.262Z,13.73
2018-09-05T04:52:58.460Z,12.83
2018-09-05T04:55:26.567Z,15.43
2018-09-05T04:57:54.696Z,13.67
2018-09-05T05:00:22.818Z,14.70
2018-09-05T05:02:51.973Z,13.67
2018-09-05T05:05:20.099Z,13.77
2018-09-05T05:07:48.452Z,15.93
2018-09-05T05:10:16.877Z,13.70
2018-09-05T05:12:45.018Z,16.97
2018-09-05T05:15:13.193Z,16.07
2018-09-05T05:17:41.311Z,18.30
2018-09-05T05:20:09.408Z,13.57
2018-09-05T05:22:37.480Z,17.13
2018-09-05T05:25:06.285Z,17.27
2018-09-05T05:27:34.412Z,17.23
2018-09-05T05:30:03.225Z,14.57
2018-09-05T05:32:31.454Z,16.47
2018-09-05T05:34:59.726Z,14.67
2018-09-05T05:37:27.822Z,13.97
2018-09-05T05:39:55.927Z,14.60
2018-09-05T05:42:24.774Z,15.23
2018-09-05T05:44:53.259Z,14.70
2018-09-05T05:47:21.448Z,14.77
2018-09-05T05:49:49.532Z,15.30
2018-09-05T05:52:17.604Z,16.13
2018-09-05T05:54:46.388Z,18.07
2018-09-05T05:57:14.567Z,18.73
2018-09-05T05:59:43.234Z,15.23
2018-09-05T06:02:12.362Z,16.10
2018-09-05T06:04:40.476Z,20.47
2018-09-05T06:07:08.967Z,19.73
2018-09-05T06:09:38.297Z,16.57
2018-09-05T06:12:07.822Z,15.47
2018-09-05T06:14:36.122Z,18.40
2018-09-05T06:17:04.307Z,25.17
2018-09-05T06:19:33.347Z,25.17
2018-09-05T06:22:01.456Z,21.63
2018-09-05T06:24:29.744Z,19.70
2018-09-05T06:26:57.891Z,21.70
2018-09-05T06:29:26.893Z,23.60
2018-09-05T06:31:55.046Z,21.03
2018-09-05T06:34:23.209Z,22.07
2018-09-05T06:36:51.516Z,24.00
2018-09-05T06:39:20.169Z,21.37
2018-09-05T06:41:48.320Z,22.03
2018-09-05T06:44:16.455Z,26.60
2018-09-05T06:46:44.991Z,20.27
2018-09-05T06:49:13.508Z,25.60
2018-09-05T06:51:42.452Z,21.97
2018-09-05T06:54:11.033Z,20.20
2018-09-05T07:01:25.680Z,21.43
2018-09-05T07:03:54.334Z,21.10
2018-09-05T07:06:22.731Z,22.20
2018-09-05T07:08:50.867Z,21.93
2018-09-05T07:11:19.406Z,23.87
2018-09-05T07:13:47.754Z,25.50
2018-09-05T07:16:16.532Z,21.93
2018-09-05T07:18:45.188Z,22.50
2018-09-05T07:21:14.581Z,22.80
2018-09-05T07:23:43.099Z,19.70
2018-09-05T07:26:11.558Z,22.33
2018-09-05T07:28:40.180Z,22.67
2018-09-05T07:31:08.662Z,20.73
2018-09-05T07:33:36.987Z,22.60
2018-09-05T07:36:05.228Z,19.70
2018-09-05T07:38:33.657Z,25.30
2018-09-05T07:41:01.805Z,19.57
2018-09-05T07:43:30.360Z,21.37
2018-09-05T07:45:58.472Z,20.90
2018-09-05T07:48:26.670Z,20.93
2018-09-05T07:50:54.805Z,21.33
2018-09-05T07:53:22.908Z,22.40
2018-09-05T07:55:51.055Z,20.00
2018-09-05T07:58:19.195Z,20.40
2018-09-05T08:00:47.761Z,19.80
2018-09-05T08:03:16.272Z,21.07
2018-09-05T08:05:44.501Z,19.63
2018-09-05T08:08:12.929Z,19.53
2018-09-05T08:10:41.183Z,21.43
2018-09-05T08:13:09.287Z,18.93
2018-09-05T08:15:37.532Z,24.93
2018-09-05T08:18:06.377Z,19.97
2018-09-05T08:20:34.500Z,21.43
2018-09-05T08:23:02.637Z,20.17
2018-09-05T08:25:30.722Z,19.53
2018-09-05T08:27:59.575Z,17.07
2018-09-05T08:30:27.945Z,19.70
2018-09-05T08:32:56.137Z,17.37
2018-09-05T08:35:25.004Z,21.23
2018-09-05T08:37:53.192Z,18.33
2018-09-05T08:40:21.434Z,26.23
2018-09-05T08:42:49.625Z,20.50
2018-09-05T08:45:18.345Z,20.27
2018-09-05T08:47:46.272Z,20.10
2018-09-05T08:50:14.902Z,25.97
2018-09-05T08:52:43.069Z,19.90
2018-09-05T08:55:11.262Z,22.37
2018-09-05T08:57:39.308Z,21.53
2018-09-05T09:00:07.943Z,20.67
2018-09-05T09:02:36.387Z,23.30
2018-09-05T09:05:05.078Z,23.80
2018-09-05T09:07:33.095Z,16.20
2018-09-05T09:10:01.264Z,24.40
2018-09-05T09:12:30.306Z,20.37
2018-09-05T09:14:58.395Z,18.23
2018-09-05T09:17:26.531Z,22.23
2018-09-05T09:19:54.672Z,18.83
2018-09-05T09:22:23.076Z,19.13
2018-09-05T09:24:51.236Z,21.60
2018-09-05T09:27:19.940Z,18.47
2018-09-05T09:29:48.832Z,17.03
2018-09-05T09:32:17.179Z,20.77
2018-09-05T09:34:45.730Z,16.13
2018-09-05T09:37:13.898Z,17.23
2018-09-05T09:39:42.045Z,22.00
2018-09-05T09:42:10.247Z,20.50
2018-09-05T09:44:38.826Z,21.80
2018-09-05T09:47:07.146Z,19.97
2018-09-05T09:49:35.563Z,24.67
2018-09-05T09:52:09.211Z,16.43
2018-09-05T09:54:38.275Z,18.10
2018-09-05T09:57:07.907Z,16.47
